createdAt,value
2022-08-03T00:01:41.853Z,1.38
2022-08-03T00:04:11.965Z,1.15
2022-08-03T00:06:39.900Z,1.08
2022-08-03T00:09:08.039Z,1.30
2022-08-03T00:11:36.624Z,1.20
2022-08-03T00:14:05.043Z,1.20
2022-08-03T00:16:33.054Z,1.40
2022-08-03T00:19:01.131Z,1.13
2022-08-03T00:21:30.560Z,1.20
2022-08-03T00:23:58.571Z,1.20
2022-08-03T00:26:26.545Z,1.27
2022-08-03T00:28:54.472Z,1.13
2022-08-03T00:31:43.036Z,1.25
2022-08-03T00:34:10.371Z,1.40
2022-08-03T00:36:41.811Z,1.40
2022-08-03T00:39:10.629Z,1.40
2022-08-03T00:41:38.574Z,1.40
2022-08-03T00:44:06.521Z,1.15
2022-08-03T00:46:34.645Z,1.10
2022-08-03T00:49:03.051Z,0.98
2022-08-03T00:51:31.097Z,1.40
2022-08-03T00:54:00.420Z,1.40
2022-08-03T00:56:28.546Z,1.80
2022-08-03T00:58:56.481Z,2.00
2022-08-03T01:01:24.513Z,2.13
2022-08-03T01:03:52.516Z,1.80
2022-08-03T01:06:21.504Z,1.90
2022-08-03T01:08:53.393Z,1.80
2022-08-03T01:11:25.856Z,1.73
2022-08-03T01:14:03.667Z,1.60
2022-08-03T01:16:49.655Z,1.50
2022-08-03T01:19:27.800Z,1.50
2022-08-03T01:22:00.725Z,1.65
2022-08-03T01:24:35.561Z,1.48
2022-08-03T01:27:10.049Z,1.90
2022-08-03T01:29:53.726Z,1.65
2022-08-03T01:32:53.470Z,1.75
2022-08-03T01:35:12.421Z,1.80
2022-08-03T01:37:42.460Z,2.17
2022-08-03T01:40:11.441Z,1.58
2022-08-03T01:42:39.644Z,1.80
2022-08-03T01:45:10.600Z,1.90
2022-08-03T01:47:38.516Z,1.90
2022-08-03T01:50:07.382Z,1.95
2022-08-03T01:52:35.332Z,2.30
2022-08-03T01:55:03.277Z,1.80
2022-08-03T01:57:31.290Z,2.30
2022-08-03T01:59:59.277Z,1.85
2022-08-03T02:02:34.141Z,1.92
2022-08-03T02:05:02.863Z,1.92
2022-08-03T02:07:30.832Z,1.98
2022-08-03T02:09:58.777Z,2.28
2022-08-03T02:12:26.972Z,2.30
2022-08-03T02:14:55.016Z,2.03
2022-08-03T02:17:39.938Z,2.17
2022-08-03T02:20:10.779Z,2.38
2022-08-03T02:22:39.710Z,2.00
2022-08-03T02:25:09.070Z,2.00
2022-08-03T02:27:41.768Z,2.20
2022-08-03T02:30:12.321Z,2.20
2022-08-03T02:32:41.007Z,1.85
2022-08-03T02:35:13.025Z,2.10
2022-08-03T02:37:43.270Z,1.88
2022-08-03T02:40:17.677Z,2.40
2022-08-03T02:42:45.667Z,2.55
2022-08-03T02:45:14.486Z,1.95
2022-08-03T02:47:54.251Z,2.17
2022-08-03T02:50:24.308Z,2.10
2022-08-03T02:52:52.623Z,2.33
2022-08-03T02:55:21.107Z,2.17
2022-08-03T02:57:49.059Z,2.30
2022-08-03T03:00:27.365Z,2.10
2022-08-03T03:02:58.141Z,2.47
2022-08-03T03:05:56.116Z,2.45
2022-08-03T03:08:18.832Z,2.25
2022-08-03T03:10:49.117Z,1.88
2022-08-03T03:13:23.285Z,2.22
2022-08-03T03:15:51.184Z,2.00
2022-08-03T03:18:22.561Z,2.33
2022-08-03T03:20:52.913Z,2.00
2022-08-03T03:23:21.486Z,2.08
2022-08-03T03:25:49.393Z,2.00
2022-08-03T03:28:17.388Z,1.63
2022-08-03T03:30:45.298Z,1.60
2022-08-03T03:33:20.914Z,1.95
2022-08-03T03:35:48.843Z,1.30
2022-08-03T03:38:18.176Z,1.20
2022-08-03T03:40:46.152Z,1.00
2022-08-03T03:43:14.408Z,1.30
2022-08-03T03:45:42.912Z,1.50
2022-08-03T03:48:10.873Z,1.55
2022-08-03T03:50:40.962Z,1.23
2022-08-03T03:53:10.565Z,1.63
2022-08-03T03:55:59.297Z,1.50
2022-08-03T03:58:28.065Z,1.25
2022-08-03T04:00:56.125Z,1.20
2022-08-03T04:03:24.211Z,1.48
2022-08-03T04:06:09.807Z,1.48
2022-08-03T04:08:55.160Z,1.10
2022-08-03T04:11:30.344Z,1.00
2022-08-03T04:14:02.281Z,1.15
2022-08-03T04:16:31.828Z,1.10
2022-08-03T04:19:02.292Z,1.40
2022-08-03T04:21:30.645Z,1.33
2022-08-03T04:24:01.472Z,1.40
2022-08-03T04:26:32.389Z,1.30
2022-08-03T04:29:00.361Z,1.33
2022-08-03T04:31:28.320Z,1.40
2022-08-03T04:33:56.387Z,1.35
2022-08-03T04:36:26.806Z,2.05
2022-08-03T04:38:57.876Z,1.55
2022-08-03T04:41:26.489Z,1.15
2022-08-03T04:43:57.584Z,1.02
2022-08-03T04:46:27.449Z,1.40
2022-08-03T04:48:55.527Z,1.23
2022-08-03T04:51:23.697Z,1.20
2022-08-03T04:53:51.594Z,0.80
2022-08-03T04:56:20.834Z,0.98
2022-08-03T04:58:48.780Z,1.10
2022-08-03T05:01:18.260Z,1.23
2022-08-03T05:03:46.221Z,1.23
2022-08-03T05:06:14.153Z,1.77
2022-08-03T05:08:47.150Z,1.13
2022-08-03T05:11:16.880Z,1.20
2022-08-03T05:13:44.849Z,1.25
2022-08-03T05:16:13.864Z,1.38
2022-08-03T05:18:43.277Z,1.43
2022-08-03T05:21:12.462Z,1.65
2022-08-03T05:23:40.390Z,1.40
2022-08-03T05:26:08.266Z,1.13
2022-08-03T05:28:36.312Z,1.67
2022-08-03T05:31:04.277Z,1.70
2022-08-03T05:33:32.478Z,1.60
2022-08-03T05:36:04.169Z,1.53
2022-08-03T05:38:34.539Z,1.60
2022-08-03T05:41:21.432Z,1.48
2022-08-03T05:43:51.968Z,1.50
2022-08-03T05:46:20.577Z,2.00
2022-08-03T05:48:48.549Z,2.08
2022-08-03T05:51:18.034Z,1.80
2022-08-03T05:53:46.278Z,1.92
2022-08-03T05:56:16.402Z,2.00
2022-08-03T05:58:45.732Z,2.17
2022-08-03T06:01:13.778Z,1.70
2022-08-03T06:03:41.819Z,1.85
2022-08-03T06:06:09.826Z,1.60
2022-08-03T06:08:43.617Z,1.73
2022-08-03T06:11:11.816Z,1.60
2022-08-03T06:13:39.813Z,1.20
2022-08-03T06:16:07.822Z,1.37
2022-08-03T06:18:35.860Z,1.52
2022-08-03T06:21:14.771Z,1.35
2022-08-03T06:23:54.397Z,1.60
2022-08-03T06:26:27.588Z,1.67
2022-08-03T06:28:55.742Z,1.87
2022-08-03T06:31:32.767Z,1.50
2022-08-03T06:34:32.955Z,1.40
2022-08-03T06:36:52.577Z,1.67
2022-08-03T06:39:23.587Z,1.87
2022-08-03T06:41:52.956Z,1.80
2022-08-03T06:44:34.346Z,1.80
2022-08-03T06:47:05.369Z,2.40
2022-08-03T06:49:36.437Z,2.03
2022-08-03T06:52:10.244Z,2.23
2022-08-03T06:54:50.174Z,2.00
2022-08-03T06:57:22.025Z,1.77
2022-08-03T07:00:09.847Z,1.80
2022-08-03T07:02:51.783Z,1.80
2022-08-03T07:05:30.874Z,2.37
2022-08-03T07:07:59.530Z,2.30
2022-08-03T07:10:28.949Z,2.57
2022-08-03T07:12:57.160Z,3.20
2022-08-03T07:15:53.673Z,3.43
2022-08-03T07:18:13.233Z,3.80
2022-08-03T07:20:42.272Z,3.87
2022-08-03T07:23:19.041Z,3.87
2022-08-03T07:25:48.815Z,3.57
2022-08-03T07:28:17.013Z,3.63
2022-08-03T07:30:45.173Z,3.30
2022-08-03T07:33:15.510Z,3.57
2022-08-03T07:35:43.704Z,3.70
2022-08-03T07:38:13.831Z,3.50
2022-08-03T07:40:46.038Z,3.57
2022-08-03T07:43:17.933Z,3.90
2022-08-03T07:45:46.171Z,4.20
2022-08-03T07:48:14.152Z,4.23
2022-08-03T07:50:42.558Z,4.03
2022-08-03T07:53:10.550Z,4.40
2022-08-03T07:55:41.630Z,4.30
2022-08-03T07:58:12.375Z,4.10
2022-08-03T08:00:42.019Z,4.47
2022-08-03T08:03:10.193Z,3.80
2022-08-03T08:05:38.314Z,4.10
2022-08-03T08:08:06.682Z,4.33
2022-08-03T08:10:35.135Z,4.47
2022-08-03T08:13:03.241Z,3.93
2022-08-03T08:15:32.060Z,3.93
2022-08-03T08:18:02.477Z,4.10
2022-08-03T08:20:33.254Z,4.80
2022-08-03T08:23:40.853Z,3.97
2022-08-03T08:25:58.242Z,3.50
2022-08-03T08:28:30.192Z,3.30
2022-08-03T08:31:01.130Z,3.15
2022-08-03T08:33:47.914Z,2.90
2022-08-03T08:36:18.577Z,3.58
2022-08-03T08:38:46.527Z,3.42
2022-08-03T08:41:15.036Z,3.88
2022-08-03T08:43:43.149Z,3.22
2022-08-03T08:46:13.040Z,2.90
2022-08-03T08:48:53.369Z,3.00
2022-08-03T08:51:22.125Z,2.70
2022-08-03T08:53:52.580Z,2.60
2022-08-03T08:56:20.535Z,2.30
2022-08-03T08:58:49.637Z,3.25
2022-08-03T09:01:19.282Z,2.70
2022-08-03T09:03:47.429Z,2.50
2022-08-03T09:06:16.962Z,2.60
2022-08-03T09:08:44.860Z,2.78
2022-08-03T09:11:12.940Z,2.55
2022-08-03T09:13:40.871Z,2.50
2022-08-03T09:16:13.113Z,2.92
2022-08-03T09:18:41.252Z,2.67
2022-08-03T09:21:34.453Z,2.40
2022-08-03T09:24:05.803Z,2.50
2022-08-03T09:26:35.822Z,2.75
2022-08-03T09:29:09.528Z,2.35
2022-08-03T09:31:43.275Z,2.63
2022-08-03T09:34:12.310Z,2.30
2022-08-03T09:36:43.165Z,2.75
2022-08-03T09:39:12.045Z,3.05
2022-08-03T09:41:40.736Z,2.63
2022-08-03T09:44:08.693Z,2.72
2022-08-03T09:46:53.733Z,2.35
2022-08-03T09:49:22.574Z,2.47
2022-08-03T09:52:32.734Z,2.28
2022-08-03T09:54:41.378Z,2.08
2022-08-03T09:57:10.104Z,2.50
2022-08-03T09:59:41.166Z,2.47
2022-08-03T10:02:10.982Z,2.30
2022-08-03T10:04:48.637Z,2.65
2022-08-03T10:07:18.635Z,2.10
2022-08-03T10:09:55.519Z,2.45
2022-08-03T10:12:24.050Z,2.60
2022-08-03T10:14:52.532Z,2.28
2022-08-03T10:17:20.584Z,2.50
2022-08-03T10:19:48.637Z,2.60
2022-08-03T10:22:19.941Z,2.28
2022-08-03T10:24:51.253Z,2.13
2022-08-03T10:27:20.209Z,2.22
2022-08-03T10:29:53.638Z,1.98
2022-08-03T10:32:24.066Z,2.08
2022-08-03T10:34:52.236Z,2.40
2022-08-03T10:37:30.191Z,2.30
2022-08-03T10:39:58.360Z,2.20
2022-08-03T10:42:27.205Z,2.40
2022-08-03T10:45:00.750Z,2.10
2022-08-03T10:47:28.676Z,2.20
2022-08-03T10:49:56.747Z,2.38
2022-08-03T10:52:32.787Z,2.13
2022-08-03T10:55:21.965Z,1.83
2022-08-03T10:57:58.410Z,1.90
2022-08-03T11:00:27.832Z,2.17
2022-08-03T11:03:09.738Z,2.10
2022-08-03T11:05:47.019Z,2.15
2022-08-03T11:08:29.111Z,2.38
2022-08-03T11:11:00.285Z,2.03
2022-08-03T11:13:31.175Z,2.28
2022-08-03T11:16:01.660Z,2.33
2022-08-03T11:18:31.851Z,2.05
2022-08-03T11:21:00.324Z,2.08
2022-08-03T11:24:04.309Z,2.40
2022-08-03T11:26:35.173Z,2.08
2022-08-03T11:29:30.152Z,4.28
2022-08-03T11:31:58.441Z,2.33
2022-08-03T11:34:26.411Z,2.30
2022-08-03T11:37:23.695Z,2.25
2022-08-03T11:39:54.848Z,2.20
2022-08-03T11:42:45.234Z,1.90
2022-08-03T11:45:13.248Z,2.10
2022-08-03T11:47:50.658Z,1.90
2022-08-03T11:50:20.048Z,1.80
2022-08-03T11:52:48.155Z,1.75
2022-08-03T11:55:18.938Z,1.80
2022-08-03T11:59:09.396Z,1.90
2022-08-03T12:00:36.328Z,2.22
2022-08-03T12:03:06.511Z,2.00
2022-08-03T12:05:51.212Z,1.85
2022-08-03T12:08:31.315Z,2.00
2022-08-03T12:11:00.526Z,1.60
2022-08-03T12:13:56.735Z,2.30
2022-08-03T12:16:25.860Z,1.80
2022-08-03T12:18:56.931Z,2.00
2022-08-03T12:21:25.177Z,2.05
2022-08-03T12:23:53.154Z,1.70
2022-08-03T12:26:21.163Z,2.20
2022-08-03T12:28:50.475Z,2.00
2022-08-03T12:31:18.426Z,2.00
2022-08-03T12:33:59.930Z,2.10
2022-08-03T12:36:29.525Z,1.95
2022-08-03T12:38:58.111Z,2.10
2022-08-03T12:41:30.317Z,1.85
2022-08-03T12:43:59.835Z,2.15
2022-08-03T12:46:31.843Z,1.85
2022-08-03T12:49:01.087Z,1.90
2022-08-03T12:51:29.457Z,1.90
2022-08-03T12:53:57.946Z,1.77
2022-08-03T12:56:25.950Z,2.00
2022-08-03T12:58:54.205Z,1.85
2022-08-03T13:01:24.535Z,2.17
2022-08-03T13:03:54.677Z,1.90
2022-08-03T13:06:24.519Z,1.88
2022-08-03T13:09:03.004Z,1.70
2022-08-03T13:11:53.604Z,1.88
2022-08-03T13:14:19.935Z,2.03
2022-08-03T13:16:49.708Z,1.83
2022-08-03T13:19:17.677Z,1.88
2022-08-03T13:22:01.673Z,1.90
2022-08-03T13:24:32.384Z,2.22
2022-08-03T13:27:00.413Z,2.08
2022-08-03T13:29:28.641Z,2.35
2022-08-03T13:31:58.066Z,1.92
2022-08-03T13:34:26.112Z,1.75
2022-08-03T13:37:10.124Z,1.77
2022-08-03T13:39:58.471Z,2.17
2022-08-03T13:42:26.601Z,2.15
2022-08-03T13:44:54.743Z,2.00
2022-08-03T13:47:24.112Z,1.92
2022-08-03T13:49:56.973Z,1.85
2022-08-03T13:52:28.770Z,1.98
2022-08-03T13:54:56.721Z,1.55
2022-08-03T13:58:04.669Z,2.05
2022-08-03T14:00:16.699Z,1.95
2022-08-03T14:03:03.771Z,1.90
2022-08-03T14:05:32.762Z,2.08
2022-08-03T14:08:04.609Z,2.40
2022-08-03T14:10:33.345Z,1.95
2022-08-03T14:13:02.702Z,1.83
2022-08-03T14:15:30.690Z,1.90
2022-08-03T14:18:00.072Z,1.90
2022-08-03T14:20:37.150Z,2.03
2022-08-03T14:23:07.131Z,1.83
2022-08-03T14:25:44.455Z,1.85
2022-08-03T14:28:21.004Z,1.88
2022-08-03T14:30:48.975Z,1.63
2022-08-03T14:33:18.395Z,1.80
2022-08-03T14:35:46.415Z,2.15
2022-08-03T14:38:14.365Z,2.00
2022-08-03T14:40:42.451Z,1.88
2022-08-03T14:43:10.437Z,2.15
2022-08-03T14:45:38.363Z,2.13
2022-08-03T14:50:29.095Z,2.05
2022-08-03T14:50:56.816Z,2.20
2022-08-03T14:53:24.898Z,2.40
2022-08-03T14:55:53.361Z,2.00
2022-08-03T14:58:22.030Z,1.92
2022-08-03T15:00:50.429Z,2.65
2022-08-03T15:03:20.376Z,2.13
2022-08-03T15:05:48.572Z,2.72
2022-08-03T15:08:17.896Z,2.35
2022-08-03T15:10:45.802Z,4.57
2022-08-03T15:13:17.200Z,4.25
2022-08-03T15:15:45.140Z,3.42
2022-08-03T15:18:13.089Z,2.50
2022-08-03T15:20:45.863Z,2.85
2022-08-03T15:23:14.594Z,2.40
2022-08-03T15:26:28.508Z,3.03
2022-08-03T15:28:32.016Z,3.55
2022-08-03T15:30:59.994Z,3.00
2022-08-03T15:33:28.059Z,2.28
2022-08-03T15:35:56.253Z,2.60
2022-08-03T15:38:26.208Z,2.70
2022-08-03T15:40:56.076Z,2.63
2022-08-03T15:43:24.081Z,2.25
2022-08-03T15:46:12.787Z,2.72
2022-08-03T15:48:40.146Z,2.70
2022-08-03T15:51:08.241Z,2.40
2022-08-03T15:53:36.177Z,2.58
2022-08-03T15:56:11.394Z,2.80
2022-08-03T15:59:09.446Z,3.78
2022-08-03T16:01:29.456Z,3.75
2022-08-03T16:03:57.535Z,3.38
2022-08-03T16:06:29.603Z,3.72
2022-08-03T16:09:03.732Z,4.60
2022-08-03T16:11:35.725Z,3.90
2022-08-03T16:14:14.090Z,3.97
2022-08-03T16:16:51.705Z,3.22
2022-08-03T16:19:19.682Z,3.00
2022-08-03T16:21:48.752Z,3.08
2022-08-03T16:24:24.250Z,2.58
2022-08-03T16:26:57.564Z,2.80
2022-08-03T16:29:25.497Z,2.50
2022-08-03T16:31:53.635Z,2.40
2022-08-03T16:34:22.275Z,2.08
2022-08-03T16:36:51.371Z,1.80
2022-08-03T16:39:19.834Z,2.38
2022-08-03T16:41:53.575Z,2.15
2022-08-03T16:44:31.181Z,2.30
2022-08-03T16:46:59.180Z,2.30
2022-08-03T16:49:55.957Z,2.05
2022-08-03T16:52:16.484Z,2.20
2022-08-03T16:54:52.843Z,2.20
2022-08-03T16:57:56.427Z,2.22
2022-08-03T17:00:11.834Z,1.80
2022-08-03T17:02:39.900Z,1.90
2022-08-03T17:05:16.118Z,2.15
2022-08-03T17:07:54.504Z,2.00
2022-08-03T17:10:27.315Z,1.83
2022-08-03T17:12:55.532Z,1.92
2022-08-03T17:15:38.083Z,1.80
2022-08-03T17:18:12.932Z,2.20
2022-08-03T17:20:42.692Z,1.90
2022-08-03T17:23:35.406Z,1.83
2022-08-03T17:26:04.376Z,1.50
2022-08-03T17:28:48.438Z,1.83
2022-08-03T17:31:31.483Z,2.05
2022-08-03T17:34:01.280Z,1.80
2022-08-03T17:37:01.619Z,1.88
2022-08-03T17:39:21.139Z,2.15
2022-08-03T17:42:00.786Z,1.83
2022-08-03T17:44:37.625Z,2.00
2022-08-03T17:47:10.813Z,2.10
2022-08-03T17:49:39.796Z,2.05
2022-08-03T17:52:10.241Z,2.38
2022-08-03T17:55:51.534Z,2.20
2022-08-03T17:58:02.194Z,2.03
2022-08-03T18:00:59.712Z,2.30
2022-08-03T18:03:31.682Z,3.15
2022-08-03T18:06:27.941Z,2.00
2022-08-03T18:08:57.007Z,2.40
2022-08-03T18:11:35.956Z,2.20
2022-08-03T18:14:16.514Z,2.10
2022-08-03T18:16:46.063Z,2.13
2022-08-03T18:19:15.452Z,2.38
2022-08-03T18:22:03.151Z,2.28
2022-08-03T18:24:32.274Z,2.45
2022-08-03T18:27:02.394Z,2.10
2022-08-03T18:29:31.641Z,2.50
2022-08-03T18:32:06.807Z,2.42
2022-08-03T18:34:53.045Z,2.47
2022-08-03T18:37:25.182Z,2.35
2022-08-03T18:39:54.321Z,2.15
2022-08-03T18:42:26.260Z,2.20
2022-08-03T18:44:56.168Z,2.63
2022-08-03T18:47:50.867Z,2.40
2022-08-03T18:50:25.812Z,2.42
2022-08-03T18:52:57.138Z,2.40
2022-08-03T18:55:33.535Z,2.42
2022-08-03T18:58:17.841Z,2.42
2022-08-03T19:03:42.738Z,2.53
2022-08-03T19:06:19.141Z,2.20
2022-08-03T19:08:50.842Z,2.42
2022-08-03T19:11:28.063Z,2.35
2022-08-03T19:13:57.804Z,2.20
2022-08-03T19:16:31.588Z,2.58
2022-08-03T19:19:03.360Z,2.42
2022-08-03T19:21:36.428Z,2.45
2022-08-03T19:24:09.695Z,2.72
2022-08-03T19:26:39.497Z,2.50
2022-08-03T19:29:15.105Z,2.25
2022-08-03T19:31:59.136Z,2.38
2022-08-03T19:34:29.253Z,2.47
2022-08-03T19:36:59.384Z,2.25
2022-08-03T19:39:27.902Z,2.67
2022-08-03T19:42:06.328Z,2.92
2022-08-03T19:44:38.821Z,2.35
2022-08-03T19:47:10.497Z,2.38
2022-08-03T19:50:04.842Z,2.40
2022-08-03T19:52:35.522Z,2.22
2022-08-03T19:55:06.474Z,2.90
2022-08-03T19:57:35.053Z,2.40
2022-08-03T20:00:04.184Z,2.15
2022-08-03T20:02:32.532Z,2.63
2022-08-03T20:05:00.660Z,2.53
2022-08-03T20:07:30.453Z,2.67
2022-08-03T20:10:01.615Z,2.88
2022-08-03T20:12:32.133Z,2.67
2022-08-03T20:15:31.300Z,2.80
2022-08-03T20:18:17.430Z,2.63
2022-08-03T20:21:01.037Z,2.57
2022-08-03T20:24:01.931Z,2.38
2022-08-03T20:26:56.578Z,2.57
2022-08-03T20:30:07.199Z,2.43
2022-08-03T20:32:49.638Z,2.27
2022-08-03T20:35:33.867Z,2.40
2022-08-03T20:38:10.773Z,2.97
2022-08-03T20:40:50.048Z,2.70
2022-08-03T20:43:34.761Z,2.60
2022-08-03T20:46:33.727Z,2.70
2022-08-03T20:49:20.762Z,3.03
2022-08-03T20:52:05.831Z,2.50
2022-08-03T20:55:02.193Z,2.40
2022-08-03T20:57:51.665Z,2.33
2022-08-03T21:00:38.471Z,2.40
2022-08-03T21:03:23.730Z,2.33
2022-08-03T21:06:04.745Z,2.67
2022-08-03T21:08:51.114Z,3.07
2022-08-03T21:11:41.594Z,2.90
2022-08-03T21:13:08.414Z,2.50
2022-08-03T21:14:13.958Z,2.30
2022-08-03T21:16:45.294Z,2.50
2022-08-03T21:19:14.024Z,2.80
2022-08-03T21:21:42.622Z,2.45
2022-08-03T21:24:11.357Z,2.57
2022-08-03T21:26:40.314Z,2.70
2022-08-03T21:29:09.040Z,2.40
2022-08-03T21:31:37.695Z,2.60
2022-08-03T21:34:08.849Z,2.83
2022-08-03T21:36:38.158Z,2.53
2022-08-03T21:39:08.777Z,2.70
2022-08-03T21:41:39.063Z,3.00
2022-08-03T21:44:07.732Z,2.30
2022-08-03T21:46:37.813Z,2.83
2022-08-03T21:50:05.406Z,2.50
2022-08-03T21:51:57.732Z,2.90
2022-08-03T21:54:27.871Z,2.60
2022-08-03T21:56:56.391Z,2.90
2022-08-03T21:59:25.140Z,2.70
2022-08-03T22:01:55.460Z,2.40
2022-08-03T22:04:50.593Z,3.00
2022-08-03T22:07:17.546Z,2.80
2022-08-03T22:09:51.495Z,3.53
2022-08-03T22:12:23.017Z,2.40
2022-08-03T22:15:00.269Z,3.17
2022-08-03T22:17:54.064Z,3.00
2022-08-03T22:20:20.088Z,2.83
2022-08-03T22:22:55.278Z,2.50
2022-08-03T22:25:25.478Z,2.87
2022-08-03T22:27:54.050Z,2.20
2022-08-03T22:30:22.823Z,2.77
2022-08-03T22:32:51.803Z,2.53
2022-08-03T22:35:22.369Z,2.23
2022-08-03T22:37:51.015Z,2.73
2022-08-03T22:40:21.457Z,2.83
2022-08-03T22:42:51.946Z,2.40
2022-08-03T22:46:06.324Z,2.37
2022-08-03T22:48:09.186Z,2.40
2022-08-03T22:50:39.163Z,2.33
2022-08-03T22:53:07.869Z,2.50
2022-08-03T22:55:36.611Z,2.50
2022-08-03T22:58:05.319Z,2.13
2022-08-03T23:00:34.102Z,2.40
2022-08-03T23:03:02.811Z,2.17
2022-08-03T23:06:01.115Z,2.00
2022-08-03T23:08:23.011Z,1.50
2022-08-03T23:10:52.118Z,1.60
2022-08-03T23:13:20.964Z,1.93
2022-08-03T23:15:52.659Z,2.07
2022-08-03T23:18:23.671Z,1.80
2022-08-03T23:20:52.950Z,1.63
2022-08-03T23:23:23.128Z,1.63
2022-08-03T23:25:51.908Z,1.73
2022-08-03T23:28:20.627Z,1.93
2022-08-03T23:30:49.324Z,1.70
2022-08-03T23:33:19.036Z,1.87
2022-08-03T23:36:27.678Z,2.10
2022-08-03T23:38:49.000Z,2.00
2022-08-03T23:41:17.705Z,2.30
2022-08-03T23:43:52.001Z,1.90
2022-08-03T23:46:22.349Z,1.80
2022-08-03T23:48:51.391Z,1.90
2022-08-03T23:51:28.090Z,2.20
2022-08-03T23:54:02.318Z,2.13
2022-08-03T23:56:33.781Z,2.20
2022-08-03T23:59:05.828Z,1.97
